createdAt,value
2017-09-12T00:01:14.346Z,60.00
2017-09-12T00:03:42.982Z,60.20
2017-09-12T00:06:11.226Z,61.70
2017-09-12T00:08:39.470Z,61.30
2017-09-12T00:11:07.738Z,61.20
2017-09-12T00:13:35.978Z,60.70
2017-09-12T00:16:04.226Z,60.20
2017-09-12T00:18:33.257Z,60.50
2017-09-12T00:21:01.498Z,60.30
2017-09-12T00:23:30.510Z,60.40
2017-09-12T00:25:59.042Z,60.30
2017-09-12T00:28:27.285Z,61.00
2017-09-12T00:30:55.531Z,60.70
2017-09-12T00:33:23.798Z,61.00
2017-09-12T00:35:52.814Z,61.70
2017-09-12T00:38:21.071Z,61.60
2017-09-12T00:40:50.102Z,62.30
2017-09-12T00:43:18.350Z,62.10
2017-09-12T00:45:47.606Z,61.80
2017-09-12T00:48:16.402Z,61.20
2017-09-12T00:50:44.646Z,62.50
2017-09-12T00:53:12.891Z,64.00
2017-09-12T00:55:41.158Z,62.40
2017-09-12T00:58:09.406Z,61.40
2017-09-12T01:00:38.419Z,62.10
2017-09-12T01:03:07.461Z,62.60
2017-09-12T01:05:35.698Z,61.70
2017-09-12T01:08:04.714Z,61.40
2017-09-12T01:10:33.517Z,61.20
2017-09-12T01:13:01.758Z,61.70
2017-09-12T01:15:30.766Z,61.60
2017-09-12T01:17:59.050Z,61.50
2017-09-12T01:20:27.895Z,60.90
2017-09-12T01:22:56.138Z,59.80
2017-09-12T01:25:24.399Z,59.20
2017-09-12T01:27:52.646Z,58.90
2017-09-12T01:30:21.663Z,60.00
2017-09-12T01:32:50.144Z,60.00
2017-09-12T01:35:18.394Z,60.00
2017-09-12T01:37:47.403Z,58.90
2017-09-12T01:40:15.666Z,58.90
2017-09-12T01:42:43.915Z,58.70
2017-09-12T01:45:12.158Z,58.70
2017-09-12T01:47:40.723Z,58.40
2017-09-12T01:50:08.962Z,58.20
2017-09-12T01:52:37.209Z,58.50
2017-09-12T01:55:06.026Z,58.40
2017-09-12T01:57:34.274Z,58.90
2017-09-12T02:00:02.518Z,59.10
2017-09-12T02:02:30.791Z,59.20
2017-09-12T02:04:59.031Z,58.80
2017-09-12T02:07:27.270Z,58.60
2017-09-12T02:09:55.542Z,58.10
2017-09-12T02:12:23.786Z,58.30
2017-09-12T02:14:52.035Z,58.10
2017-09-12T02:17:20.579Z,58.00
2017-09-12T02:19:48.818Z,57.90
2017-09-12T02:22:17.062Z,57.80
2017-09-12T02:24:45.335Z,57.60
2017-09-12T02:27:13.578Z,57.70
2017-09-12T02:29:41.820Z,58.20
2017-09-12T02:32:10.856Z,57.90
2017-09-12T02:34:39.098Z,57.90
2017-09-12T02:37:07.389Z,58.20
2017-09-12T02:39:36.706Z,58.30
2017-09-12T02:42:04.946Z,58.20
2017-09-12T02:44:33.962Z,58.30
2017-09-12T02:47:02.235Z,58.30
2017-09-12T02:49:30.796Z,58.20
2017-09-12T02:51:59.806Z,58.40
2017-09-12T02:54:28.091Z,58.30
2017-09-12T02:56:56.333Z,58.30
2017-09-12T02:59:24.578Z,58.40
2017-09-12T03:01:52.894Z,59.00
2017-09-12T03:04:21.142Z,59.10
2017-09-12T03:06:49.396Z,59.00
2017-09-12T03:09:17.670Z,58.70
2017-09-12T03:11:46.826Z,59.20
2017-09-12T03:14:16.731Z,59.30
2017-09-12T03:16:45.762Z,60.00
2017-09-12T03:19:14.002Z,59.40
2017-09-12T03:21:42.259Z,59.10
2017-09-12T03:24:10.912Z,59.10
2017-09-12T03:26:39.155Z,59.30
2017-09-12T03:29:08.165Z,59.60
2017-09-12T03:31:36.430Z,59.60
2017-09-12T03:34:04.670Z,61.10
2017-09-12T03:36:32.920Z,61.40
2017-09-12T03:39:01.200Z,61.00
2017-09-12T03:41:29.431Z,60.60
2017-09-12T03:43:58.447Z,60.70
2017-09-12T03:46:27.554Z,60.70
2017-09-12T03:48:55.814Z,60.80
2017-09-12T03:51:24.273Z,61.30
2017-09-12T03:53:53.306Z,61.30
2017-09-12T03:56:21.546Z,61.20
2017-09-12T03:58:49.786Z,61.30
2017-09-12T04:01:18.053Z,61.70
2017-09-12T04:03:46.581Z,62.00
2017-09-12T04:06:14.807Z,62.30
2017-09-12T04:08:44.198Z,62.20
2017-09-12T04:11:12.432Z,62.40
2017-09-12T04:13:41.454Z,63.40
2017-09-12T04:16:09.722Z,63.30
2017-09-12T04:18:37.967Z,63.10
2017-09-12T04:21:06.982Z,64.60
2017-09-12T04:23:35.254Z,64.60
2017-09-12T04:26:04.271Z,63.50
2017-09-12T04:28:32.507Z,63.40
2017-09-12T04:31:01.144Z,64.70
2017-09-12T04:33:29.390Z,64.30
2017-09-12T04:35:57.654Z,63.80
2017-09-12T04:38:25.923Z,63.40
2017-09-12T04:40:54.930Z,64.80
2017-09-12T04:43:23.942Z,65.30
2017-09-12T04:45:52.226Z,65.10
2017-09-12T04:48:20.470Z,66.20
2017-09-12T04:50:48.717Z,64.90
2017-09-12T04:53:17.478Z,64.50
2017-09-12T04:55:45.730Z,65.20
2017-09-12T04:58:14.035Z,65.50
2017-09-12T05:00:42.302Z,65.50
2017-09-12T05:03:10.542Z,65.40
2017-09-12T05:05:38.991Z,64.30
2017-09-12T05:08:07.268Z,65.20
2017-09-12T05:10:35.512Z,66.50
2017-09-12T05:13:03.758Z,66.60
2017-09-12T05:15:32.582Z,66.50
2017-09-12T05:18:00.841Z,65.60
2017-09-12T05:20:29.126Z,66.00
2017-09-12T05:22:57.450Z,64.60
2017-09-12T05:25:25.687Z,65.10
2017-09-12T05:27:53.926Z,64.80
2017-09-12T05:30:22.959Z,63.60
2017-09-12T05:32:51.231Z,63.60
2017-09-12T05:35:19.477Z,64.10
2017-09-12T05:37:48.922Z,64.00
2017-09-12T05:40:17.189Z,64.00
2017-09-12T05:42:45.422Z,63.50
2017-09-12T05:45:14.446Z,63.50
2017-09-12T05:47:42.694Z,63.40
2017-09-12T05:50:11.714Z,64.60
2017-09-12T05:52:39.996Z,64.60
2017-09-12T05:55:08.811Z,64.30
2017-09-12T05:57:37.094Z,64.10
2017-09-12T06:00:05.845Z,63.60
2017-09-12T06:02:34.098Z,63.80
2017-09-12T06:05:02.345Z,64.00
2017-09-12T06:07:30.610Z,64.30
2017-09-12T06:09:58.931Z,65.20
2017-09-12T06:12:27.950Z,65.80
2017-09-12T06:14:56.234Z,65.80
2017-09-12T06:17:24.475Z,65.20
2017-09-12T06:19:53.486Z,66.40
2017-09-12T06:22:22.166Z,66.30
2017-09-12T06:24:52.094Z,67.20
2017-09-12T06:27:20.338Z,67.20
2017-09-12T06:29:48.613Z,67.40
2017-09-12T06:32:16.854Z,66.60
2017-09-12T06:34:45.098Z,67.10
2017-09-12T06:37:14.234Z,65.90
2017-09-12T06:39:42.470Z,65.40
2017-09-12T06:42:10.718Z,66.70
2017-09-12T06:44:40.162Z,66.40
2017-09-12T06:47:08.408Z,66.20
2017-09-12T06:49:38.039Z,65.80
2017-09-12T06:52:06.306Z,65.70
2017-09-12T06:54:34.554Z,66.30
2017-09-12T06:57:03.172Z,65.50
2017-09-12T06:59:31.449Z,65.40
2017-09-12T07:01:59.695Z,65.70
2017-09-12T07:04:27.938Z,66.20
2017-09-12T07:06:56.403Z,66.10
2017-09-12T07:09:24.643Z,66.20
2017-09-12T07:11:53.658Z,67.30
2017-09-12T07:14:21.930Z,67.20
2017-09-12T07:16:50.182Z,66.80
2017-09-12T07:19:19.215Z,66.90
2017-09-12T07:21:47.482Z,66.80
2017-09-12T07:24:15.735Z,67.30
2017-09-12T07:26:43.978Z,66.90
2017-09-12T07:29:12.435Z,67.00
2017-09-12T07:31:40.683Z,66.60
2017-09-12T07:34:08.929Z,67.30
2017-09-12T07:36:37.203Z,66.70
2017-09-12T07:39:05.589Z,67.00
2017-09-12T07:41:33.851Z,66.40
2017-09-12T07:44:02.107Z,66.80
2017-09-12T07:46:30.346Z,66.80
2017-09-12T07:48:58.596Z,67.50
2017-09-12T07:51:27.310Z,67.50
2017-09-12T07:53:55.658Z,67.60
2017-09-12T07:56:23.932Z,66.50
2017-09-12T07:58:52.337Z,66.80
2017-09-12T08:01:20.583Z,65.90
2017-09-12T08:03:48.829Z,66.00
2017-09-12T08:06:17.096Z,66.00
2017-09-12T08:08:45.348Z,64.90
2017-09-12T08:11:13.586Z,64.00
2017-09-12T08:13:42.347Z,62.90
2017-09-12T08:16:10.590Z,62.00
2017-09-12T08:18:38.844Z,61.50
2017-09-12T08:21:07.882Z,59.80
2017-09-12T08:23:36.135Z,59.70
2017-09-12T08:26:04.387Z,58.80
2017-09-12T08:28:32.659Z,58.50
2017-09-12T08:31:00.906Z,59.30
2017-09-12T08:33:29.155Z,59.50
2017-09-12T08:35:57.791Z,59.20
2017-09-12T08:38:26.059Z,58.30
2017-09-12T08:40:54.294Z,58.30
2017-09-12T08:43:22.570Z,58.50
2017-09-12T08:45:50.811Z,58.50
2017-09-12T08:48:19.054Z,58.60
2017-09-12T08:50:47.340Z,58.90
2017-09-12T08:53:15.588Z,58.00
2017-09-12T08:55:43.838Z,57.50
2017-09-12T08:58:12.557Z,57.00
2017-09-12T09:00:41.318Z,55.30
2017-09-12T09:03:09.566Z,55.30
2017-09-12T09:05:38.606Z,53.80
2017-09-12T09:08:06.854Z,53.70
2017-09-12T09:10:35.094Z,53.90
2017-09-12T09:13:03.366Z,53.80
2017-09-12T09:15:31.606Z,53.80
2017-09-12T09:17:59.846Z,53.60
2017-09-12T09:20:29.234Z,53.10
2017-09-12T09:22:57.486Z,53.10
2017-09-12T09:25:25.730Z,52.60
2017-09-12T09:27:54.135Z,52.70
2017-09-12T09:30:22.360Z,53.00
2017-09-12T09:32:51.371Z,53.30
2017-09-12T09:35:19.638Z,53.20
2017-09-12T09:37:47.893Z,52.30
2017-09-12T09:40:16.139Z,52.70
2017-09-12T09:42:44.874Z,52.30
2017-09-12T09:45:13.126Z,52.90
2017-09-12T09:47:41.372Z,53.30
2017-09-12T09:50:09.639Z,53.20
2017-09-12T09:52:37.891Z,52.60
2017-09-12T09:55:06.147Z,52.50
2017-09-12T09:57:35.302Z,52.70
2017-09-12T10:00:03.543Z,52.70
2017-09-12T10:02:31.894Z,52.40
2017-09-12T10:05:01.361Z,52.20
2017-09-12T10:07:29.610Z,52.10
2017-09-12T10:09:57.955Z,51.80
2017-09-12T10:12:28.173Z,51.30
2017-09-12T10:14:57.178Z,50.80
2017-09-12T10:17:26.189Z,50.60
2017-09-12T10:19:54.458Z,50.60
2017-09-12T10:22:22.706Z,50.60
2017-09-12T10:24:50.952Z,51.10
2017-09-12T10:27:19.419Z,51.10
2017-09-12T10:29:47.674Z,51.10
2017-09-12T10:32:15.922Z,51.50
2017-09-12T10:34:44.200Z,48.60
2017-09-12T10:37:12.451Z,48.60
2017-09-12T10:39:40.698Z,47.80
2017-09-12T10:42:08.966Z,46.80
2017-09-12T10:44:37.211Z,46.70
2017-09-12T10:47:06.230Z,47.50
2017-09-12T10:49:34.835Z,47.40
2017-09-12T10:52:03.090Z,49.10
2017-09-12T10:54:31.330Z,50.60
2017-09-12T10:56:59.610Z,52.10
2017-09-12T10:59:28.630Z,55.80
2017-09-12T11:01:56.881Z,55.80
2017-09-12T11:04:26.246Z,61.20
2017-09-12T11:06:54.490Z,61.40
2017-09-12T11:09:22.734Z,61.50
2017-09-12T11:11:52.096Z,58.60
2017-09-12T11:14:20.333Z,58.60
2017-09-12T11:16:48.766Z,59.10
2017-09-12T11:19:17.046Z,59.50
2017-09-12T11:21:45.297Z,57.90
2017-09-12T11:24:13.543Z,57.00
2017-09-12T11:26:41.806Z,55.10
2017-09-12T11:29:10.055Z,54.40
2017-09-12T11:31:38.306Z,54.20
2017-09-12T11:34:06.882Z,52.70
2017-09-12T11:36:35.122Z,53.00
2017-09-12T11:39:03.370Z,52.60
2017-09-12T11:41:31.642Z,51.80
2017-09-12T11:43:59.890Z,51.00
2017-09-12T11:46:28.130Z,50.80
2017-09-12T11:48:57.171Z,53.60
2017-09-12T11:51:25.414Z,53.60
2017-09-12T11:53:53.666Z,56.60
2017-09-12T11:56:22.299Z,59.70
2017-09-12T11:58:50.550Z,57.60
2017-09-12T12:01:18.791Z,61.60
2017-09-12T12:03:47.064Z,59.20
2017-09-12T12:06:15.635Z,60.30
2017-09-12T12:08:43.882Z,57.50
2017-09-12T12:11:12.178Z,53.10
2017-09-12T12:13:40.410Z,49.40
2017-09-12T12:16:08.653Z,47.40
2017-09-12T12:18:37.401Z,48.80
2017-09-12T12:21:05.645Z,49.20
2017-09-12T12:23:33.888Z,49.60
2017-09-12T12:26:02.155Z,50.40
2017-09-12T12:28:30.396Z,50.50
2017-09-12T12:30:58.638Z,50.40
2017-09-12T12:33:27.682Z,49.20
2017-09-12T12:35:55.965Z,49.20
2017-09-12T12:38:24.210Z,49.50
2017-09-12T12:40:52.709Z,48.90
2017-09-12T12:43:20.970Z,50.10
2017-09-12T12:45:49.219Z,50.20
2017-09-12T12:48:18.259Z,49.60
2017-09-12T12:50:46.502Z,49.50
2017-09-12T12:53:14.759Z,55.90
2017-09-12T12:55:43.029Z,65.10
2017-09-12T12:58:11.275Z,65.60
2017-09-12T13:00:39.518Z,68.90
2017-09-12T13:03:08.227Z,70.10
2017-09-12T13:05:36.529Z,68.60
2017-09-12T13:08:05.243Z,66.50
2017-09-12T13:10:34.280Z,58.20
2017-09-12T13:13:02.530Z,58.10
2017-09-12T13:15:30.769Z,58.40
2017-09-12T13:17:59.418Z,59.50
2017-09-12T13:20:27.663Z,56.30
2017-09-12T13:22:56.318Z,56.10
2017-09-12T13:25:24.722Z,55.40
2017-09-12T13:27:53.734Z,56.00
2017-09-12T13:30:21.990Z,55.90
2017-09-12T13:32:51.045Z,59.40
2017-09-12T13:35:19.288Z,59.40
2017-09-12T13:37:47.805Z,59.50
2017-09-12T13:40:16.075Z,62.40
2017-09-12T13:42:44.320Z,65.90
2017-09-12T13:45:12.566Z,67.30
2017-09-12T13:47:40.924Z,59.10
2017-09-12T13:50:09.169Z,55.20
2017-09-12T13:52:37.410Z,53.00
2017-09-12T13:55:05.682Z,48.50
2017-09-12T13:57:34.694Z,42.80
2017-09-12T14:00:02.962Z,42.80
2017-09-12T14:02:31.233Z,42.80
2017-09-12T14:04:59.470Z,42.40
2017-09-12T14:07:27.862Z,41.50
2017-09-12T14:09:57.015Z,40.70
2017-09-12T14:12:25.271Z,41.40
2017-09-12T14:14:53.780Z,40.40
2017-09-12T14:17:22.034Z,38.60
2017-09-12T14:19:50.282Z,35.20
2017-09-12T14:22:18.527Z,37.30
2017-09-12T14:24:46.790Z,36.00
2017-09-12T14:27:15.038Z,36.10
2017-09-12T14:29:43.290Z,37.60
2017-09-12T14:32:12.763Z,42.10
2017-09-12T14:34:40.998Z,41.90
2017-09-12T14:37:09.246Z,42.70
2017-09-12T14:39:37.522Z,43.80
2017-09-12T14:42:05.802Z,45.50
2017-09-12T14:44:34.806Z,47.80
2017-09-12T14:47:03.856Z,48.30
2017-09-12T14:49:32.090Z,48.30
2017-09-12T14:52:00.326Z,49.30
2017-09-12T14:54:28.654Z,50.30
2017-09-12T14:56:56.919Z,48.00
2017-09-12T14:59:25.162Z,47.70
2017-09-12T15:01:53.426Z,45.80
2017-09-12T15:04:21.674Z,45.40
2017-09-12T15:06:49.914Z,46.60
2017-09-12T15:09:18.946Z,42.30
2017-09-12T15:11:47.586Z,42.30
2017-09-12T15:14:16.602Z,41.50
2017-09-12T15:16:45.174Z,41.40
2017-09-12T15:19:13.419Z,36.80
2017-09-12T15:21:41.687Z,37.90
2017-09-12T15:24:09.979Z,40.30
2017-09-12T15:26:38.218Z,40.20
2017-09-12T15:29:06.458Z,41.00
2017-09-12T15:31:34.734Z,42.00
2017-09-12T15:34:02.970Z,42.40
2017-09-12T15:36:31.214Z,43.20
2017-09-12T15:38:59.643Z,41.30
2017-09-12T15:41:27.884Z,41.10
2017-09-12T15:43:56.131Z,40.90
2017-09-12T15:46:24.578Z,38.70
2017-09-12T15:48:53.593Z,38.60
2017-09-12T15:51:23.078Z,39.20
2017-09-12T15:53:51.356Z,39.10
2017-09-12T15:56:19.602Z,38.30
2017-09-12T15:58:47.849Z,40.10
2017-09-12T16:01:16.270Z,41.20
2017-09-12T16:03:44.514Z,42.70
2017-09-12T16:06:12.755Z,42.00
2017-09-12T16:08:41.022Z,41.50
2017-09-12T16:11:10.038Z,40.60
2017-09-12T16:13:38.608Z,40.60
2017-09-12T16:16:07.662Z,39.70
2017-09-12T16:18:35.907Z,39.70
2017-09-12T16:21:04.516Z,40.30
2017-09-12T16:23:34.207Z,40.50
2017-09-12T16:26:04.662Z,40.00
2017-09-12T16:28:35.286Z,40.50
2017-09-12T16:31:05.730Z,41.00
2017-09-12T16:33:35.051Z,40.50
2017-09-12T16:36:06.634Z,40.90
2017-09-12T16:38:41.535Z,40.90
2017-09-12T16:41:10.283Z,40.30
2017-09-12T16:43:38.519Z,41.10
2017-09-12T16:46:07.789Z,41.30
2017-09-12T16:48:37.042Z,41.30
2017-09-12T16:51:05.762Z,42.50
2017-09-12T16:53:34.147Z,42.40
2017-09-12T16:56:02.554Z,43.00
2017-09-12T16:58:32.394Z,43.90
2017-09-12T17:01:00.900Z,43.80
2017-09-12T17:03:29.291Z,44.40
2017-09-12T17:05:57.570Z,45.00
2017-09-12T17:08:25.970Z,45.50
2017-09-12T17:10:56.207Z,45.30
2017-09-12T17:13:25.475Z,46.80
2017-09-12T17:15:54.479Z,46.60
2017-09-12T17:18:22.874Z,47.00
2017-09-12T17:20:51.895Z,47.80
2017-09-12T17:23:20.145Z,47.70
2017-09-12T17:25:49.302Z,48.70
2017-09-12T17:28:19.071Z,48.60
2017-09-12T17:30:47.510Z,48.90
2017-09-12T17:33:16.870Z,49.30
2017-09-12T17:35:46.434Z,49.80
2017-09-12T17:38:14.786Z,50.00
2017-09-12T17:40:43.578Z,50.40
2017-09-12T17:43:11.859Z,50.50
2017-09-12T17:45:40.246Z,51.20
2017-09-12T17:48:08.712Z,51.50
2017-09-12T17:50:37.916Z,52.00
2017-09-12T17:53:06.289Z,52.40
2017-09-12T17:55:34.697Z,52.60
2017-09-12T17:58:03.059Z,53.00
2017-09-12T18:00:31.507Z,52.80
2017-09-12T18:02:59.847Z,53.80
2017-09-12T18:05:28.858Z,54.10
2017-09-12T18:08:04.085Z,54.10
2017-09-12T18:10:32.329Z,54.10
2017-09-12T18:13:00.707Z,54.80
2017-09-12T18:15:29.115Z,55.30
2017-09-12T18:17:58.502Z,55.80
2017-09-12T18:20:26.743Z,55.80
2017-09-12T18:22:55.003Z,55.80
2017-09-12T18:25:23.250Z,55.90
2017-09-12T18:27:52.280Z,56.30
2017-09-12T18:30:20.919Z,56.30
2017-09-12T18:32:53.266Z,56.20
2017-09-12T18:35:21.654Z,57.00
2017-09-12T18:37:51.045Z,56.90
2017-09-12T18:40:19.355Z,57.60
2017-09-12T18:42:47.722Z,57.40
2017-09-12T18:45:15.994Z,57.90
2017-09-12T18:47:44.470Z,58.00
2017-09-12T18:50:12.846Z,58.00
2017-09-12T18:52:41.625Z,58.70
2017-09-12T18:55:09.904Z,58.30
2017-09-12T18:57:38.142Z,59.40
2017-09-12T19:00:06.427Z,60.80
2017-09-12T19:02:34.739Z,59.80
2017-09-12T19:05:03.124Z,62.50
2017-09-12T19:07:31.534Z,61.70
2017-09-12T19:10:00.638Z,62.10
2017-09-12T19:12:29.498Z,61.40
2017-09-12T19:14:57.930Z,63.80
2017-09-12T19:17:27.027Z,64.50
2017-09-12T19:19:55.370Z,63.20
2017-09-12T19:22:24.471Z,65.20
2017-09-12T19:24:52.919Z,65.10
2017-09-12T19:27:21.172Z,65.50
2017-09-12T19:29:49.451Z,67.00
2017-09-12T19:32:20.255Z,65.60
2017-09-12T19:34:52.671Z,65.40
2017-09-12T19:37:20.964Z,65.50
2017-09-12T19:39:49.368Z,66.50
2017-09-12T19:42:17.622Z,67.40
2017-09-12T19:44:46.102Z,68.10
2017-09-12T19:47:14.476Z,70.90
2017-09-12T19:49:43.437Z,69.80
2017-09-12T19:52:13.076Z,66.60
2017-09-12T19:54:43.304Z,68.50
2017-09-12T19:57:11.901Z,68.90
2017-09-12T19:59:40.249Z,69.60
2017-09-12T20:02:08.630Z,67.00
2017-09-12T20:04:36.880Z,69.70
2017-09-12T20:07:05.122Z,66.00
2017-09-12T20:09:34.140Z,67.60
2017-09-12T20:12:02.414Z,67.40
2017-09-12T20:14:30.663Z,70.00
2017-09-12T20:16:59.679Z,69.30
2017-09-12T20:19:28.074Z,69.20
2017-09-12T20:21:57.042Z,67.80
2017-09-12T20:24:26.674Z,69.40
2017-09-12T20:26:54.941Z,69.30
2017-09-12T20:29:23.190Z,70.50
2017-09-12T20:31:51.435Z,69.10
2017-09-12T20:34:19.709Z,69.00
2017-09-12T20:36:48.713Z,68.70
2017-09-12T20:39:16.958Z,68.70
2017-09-12T20:41:45.667Z,69.00
2017-09-12T20:44:13.915Z,67.70
2017-09-12T20:46:42.162Z,68.20
2017-09-12T20:49:10.434Z,66.50
2017-09-12T20:51:39.442Z,68.50
2017-09-12T20:54:07.695Z,68.30
2017-09-12T20:56:36.120Z,68.90
2017-09-12T20:59:04.350Z,69.60
2017-09-12T21:01:32.609Z,69.30
2017-09-12T21:04:01.371Z,68.90
2017-09-12T21:06:29.617Z,71.70
2017-09-12T21:08:57.853Z,71.40
2017-09-12T21:11:26.122Z,70.20
2017-09-12T21:13:54.366Z,72.40
2017-09-12T21:16:22.616Z,71.90
2017-09-12T21:18:51.646Z,72.90
2017-09-12T21:21:19.898Z,72.60
2017-09-12T21:23:48.602Z,71.30
2017-09-12T21:26:17.270Z,70.40
2017-09-12T21:28:45.514Z,69.90
2017-09-12T21:31:13.755Z,71.00
2017-09-12T21:33:42.018Z,71.70
2017-09-12T21:36:10.259Z,72.30
2017-09-12T21:38:39.276Z,72.00
2017-09-12T21:41:07.542Z,72.00
2017-09-12T21:43:35.791Z,70.40
2017-09-12T21:46:04.042Z,71.20
2017-09-12T21:48:32.518Z,71.60
2017-09-12T21:51:00.767Z,70.80
2017-09-12T21:53:29.011Z,73.50
2017-09-12T21:55:58.054Z,73.70
2017-09-12T21:58:27.230Z,73.40
2017-09-12T22:00:55.471Z,73.50
2017-09-12T22:03:23.744Z,73.00
2017-09-12T22:05:51.990Z,74.20
2017-09-12T22:08:20.642Z,72.20
2017-09-12T22:10:48.999Z,74.20
2017-09-12T22:13:18.014Z,73.00
2017-09-12T22:15:46.444Z,72.90
2017-09-12T22:18:14.720Z,73.50
2017-09-12T22:20:42.965Z,74.30
2017-09-12T22:23:11.206Z,74.90
2017-09-12T22:25:40.006Z,75.10
2017-09-12T22:28:08.254Z,75.30
2017-09-12T22:30:36.502Z,72.10
2017-09-12T22:33:05.044Z,75.00
2017-09-12T22:35:33.276Z,74.00
2017-09-12T22:38:01.519Z,75.00
2017-09-12T22:40:29.795Z,73.70
2017-09-12T22:42:58.048Z,75.70
2017-09-12T22:45:26.374Z,77.00
2017-09-12T22:47:54.643Z,74.30
2017-09-12T22:50:22.898Z,74.80
2017-09-12T22:52:51.155Z,74.30
2017-09-12T22:55:19.558Z,74.30
2017-09-12T22:57:47.803Z,74.00
2017-09-12T23:00:16.043Z,74.90
2017-09-12T23:02:44.319Z,75.10
2017-09-12T23:05:12.567Z,75.00
2017-09-12T23:07:40.822Z,73.60
2017-09-12T23:10:09.098Z,75.10
2017-09-12T23:12:37.441Z,73.80
2017-09-12T23:15:05.671Z,73.10
2017-09-12T23:17:34.150Z,73.10
2017-09-12T23:20:02.394Z,73.80
2017-09-12T23:22:33.324Z,73.30
2017-09-12T23:25:02.354Z,73.60
2017-09-12T23:27:31.035Z,73.60
2017-09-12T23:29:59.267Z,72.80
2017-09-12T23:32:27.547Z,75.40
2017-09-12T23:34:55.781Z,76.00
2017-09-12T23:37:24.259Z,74.90
2017-09-12T23:39:53.206Z,73.20
2017-09-12T23:42:21.451Z,75.30
2017-09-12T23:44:49.694Z,74.20
2017-09-12T23:47:17.964Z,74.80
2017-09-12T23:49:46.206Z,74.50
2017-09-12T23:52:14.451Z,78.80
2017-09-12T23:54:42.715Z,75.70
2017-09-12T23:57:10.962Z,77.90
2017-09-12T23:59:39.210Z,76.40
